sensor_id;sensor_type;location;lat;lon;timestamp;P1;durP1;ratioP1;P2;durP2;ratioP2
70312;SDS011;57723;51.698;5.344;2023-08-21T00:01:15;6.07;;;1.40;;
70312;SDS011;57723;51.698;5.344;2023-08-21T00:03:40;4.30;;;1.40;;
70312;SDS011;57723;51.698;5.344;2023-08-21T00:06:05;4.77;;;1.40;;
70312;SDS011;57723;51.698;5.344;2023-08-21T00:08:31;4.70;;;1.23;;
70312;SDS011;57723;51.698;5.344;2023-08-21T00:10:59;6.43;;;1.20;;
70312;SDS011;57723;51.698;5.344;2023-08-21T00:13:25;3.60;;;1.27;;
70312;SDS011;57723;51.698;5.344;2023-08-21T00:15:50;6.15;;;1.25;;
70312;SDS011;57723;51.698;5.344;2023-08-21T00:18:19;4.40;;;1.20;;
70312;SDS011;57723;51.698;5.344;2023-08-21T00:20:45;6.20;;;1.33;;
70312;SDS011;57723;51.698;5.344;2023-08-21T00:23:10;5.27;;;1.30;;
70312;SDS011;57723;51.698;5.344;2023-08-21T00:25:36;7.53;;;1.58;;
70312;SDS011;57723;51.698;5.344;2023-08-21T00:28:01;5.10;;;1.30;;
70312;SDS011;57723;51.698;5.344;2023-08-21T00:30:27;6.37;;;1.70;;
70312;SDS011;57723;51.698;5.344;2023-08-21T00:32:52;5.55;;;1.45;;
70312;SDS011;57723;51.698;5.344;2023-08-21T00:35:17;4.67;;;1.10;;
70312;SDS011;57723;51.698;5.344;2023-08-21T00:37:43;8.60;;;1.97;;
70312;SDS011;57723;51.698;5.344;2023-08-21T00:40:08;5.17;;;1.43;;
70312;SDS011;57723;51.698;5.344;2023-08-21T00:42:34;4.63;;;1.33;;
70312;SDS011;57723;51.698;5.344;2023-08-21T00:44:59;5.83;;;1.40;;
70312;SDS011;57723;51.698;5.344;2023-08-21T00:47:24;6.20;;;1.23;;
70312;SDS011;57723;51.698;5.344;2023-08-21T00:49:50;3.97;;;1.20;;
70312;SDS011;57723;51.698;5.344;2023-08-21T00:52:15;5.30;;;1.63;;
70312;SDS011;57723;51.698;5.344;2023-08-21T00:54:41;4.50;;;1.40;;
70312;SDS011;57723;51.698;5.344;2023-08-21T00:57:06;7.95;;;1.50;;
70312;SDS011;57723;51.698;5.344;2023-08-21T00:59:32;5.73;;;1.50;;
70312;SDS011;57723;51.698;5.344;2023-08-21T01:01:57;6.23;;;1.40;;
70312;SDS011;57723;51.698;5.344;2023-08-21T01:04:22;4.27;;;1.40;;
70312;SDS011;57723;51.698;5.344;2023-08-21T01:06:48;4.53;;;1.30;;
70312;SDS011;57723;51.698;5.344;2023-08-21T01:14:16;4.50;;;1.60;;
70312;SDS011;57723;51.698;5.344;2023-08-21T01:16:42;6.03;;;1.88;;
70312;SDS011;57723;51.698;5.344;2023-08-21T01:19:10;6.82;;;1.60;;
70312;SDS011;57723;51.698;5.344;2023-08-21T01:21:39;5.00;;;1.60;;
70312;SDS011;57723;51.698;5.344;2023-08-21T01:24:05;4.40;;;1.60;;
70312;SDS011;57723;51.698;5.344;2023-08-21T01:26:30;7.50;;;1.60;;
70312;SDS011;57723;51.698;5.344;2023-08-21T01:28:56;4.37;;;1.47;;
70312;SDS011;57723;51.698;5.344;2023-08-21T01:31:24;4.20;;;1.60;;
70312;SDS011;57723;51.698;5.344;2023-08-21T01:33:53;6.93;;;1.60;;
70312;SDS011;57723;51.698;5.344;2023-08-21T01:36:19;6.13;;;1.35;;
70312;SDS011;57723;51.698;5.344;2023-08-21T01:38:45;6.50;;;1.67;;
70312;SDS011;57723;51.698;5.344;2023-08-21T01:41:10;5.50;;;1.40;;
70312;SDS011;57723;51.698;5.344;2023-08-21T01:43:36;7.30;;;1.70;;
70312;SDS011;57723;51.698;5.344;2023-08-21T01:46:02;4.57;;;1.70;;
70312;SDS011;57723;51.698;5.344;2023-08-21T01:48:28;5.43;;;1.48;;
70312;SDS011;57723;51.698;5.344;2023-08-21T01:50:54;8.17;;;2.10;;
70312;SDS011;57723;51.698;5.344;2023-08-21T01:53:19;4.47;;;1.70;;
70312;SDS011;57723;51.698;5.344;2023-08-21T01:55:44;4.33;;;1.60;;
70312;SDS011;57723;51.698;5.344;2023-08-21T01:58:14;4.77;;;1.73;;
70312;SDS011;57723;51.698;5.344;2023-08-21T02:00:40;5.70;;;1.60;;
70312;SDS011;57723;51.698;5.344;2023-08-21T02:03:05;5.70;;;1.70;;
70312;SDS011;57723;51.698;5.344;2023-08-21T02:05:36;6.00;;;1.80;;
70312;SDS011;57723;51.698;5.344;2023-08-21T02:08:04;7.50;;;1.70;;
70312;SDS011;57723;51.698;5.344;2023-08-21T02:10:29;6.72;;;1.70;;
70312;SDS011;57723;51.698;5.344;2023-08-21T02:12:58;6.53;;;2.00;;
70312;SDS011;57723;51.698;5.344;2023-08-21T02:15:26;9.25;;;2.25;;
70312;SDS011;57723;51.698;5.344;2023-08-21T02:17:51;4.10;;;2.13;;
70312;SDS011;57723;51.698;5.344;2023-08-21T02:20:17;4.80;;;1.90;;
70312;SDS011;57723;51.698;5.344;2023-08-21T02:22:42;5.80;;;2.38;;
70312;SDS011;57723;51.698;5.344;2023-08-21T02:25:08;4.80;;;2.00;;
70312;SDS011;57723;51.698;5.344;2023-08-21T02:27:33;5.77;;;2.07;;
70312;SDS011;57723;51.698;5.344;2023-08-21T02:30:01;5.27;;;2.10;;
70312;SDS011;57723;51.698;5.344;2023-08-21T02:32:27;5.95;;;1.90;;
70312;SDS011;57723;51.698;5.344;2023-08-21T02:34:53;6.97;;;2.10;;
70312;SDS011;57723;51.698;5.344;2023-08-21T02:37:18;8.25;;;2.15;;
70312;SDS011;57723;51.698;5.344;2023-08-21T02:39:44;5.97;;;1.73;;
70312;SDS011;57723;51.698;5.344;2023-08-21T02:42:09;7.63;;;2.20;;
70312;SDS011;57723;51.698;5.344;2023-08-21T02:44:35;6.70;;;2.20;;
70312;SDS011;57723;51.698;5.344;2023-08-21T02:47:00;7.13;;;1.90;;
70312;SDS011;57723;51.698;5.344;2023-08-21T02:49:29;7.90;;;2.20;;
70312;SDS011;57723;51.698;5.344;2023-08-21T02:52:02;5.60;;;1.90;;
70312;SDS011;57723;51.698;5.344;2023-08-21T02:54:28;6.27;;;1.80;;
70312;SDS011;57723;51.698;5.344;2023-08-21T02:56:53;5.90;;;1.70;;
70312;SDS011;57723;51.698;5.344;2023-08-21T02:59:22;5.53;;;1.70;;
70312;SDS011;57723;51.698;5.344;2023-08-21T03:01:50;8.75;;;1.92;;
70312;SDS011;57723;51.698;5.344;2023-08-21T03:04:16;5.30;;;1.87;;
70312;SDS011;57723;51.698;5.344;2023-08-21T03:06:41;5.83;;;1.83;;
70312;SDS011;57723;51.698;5.344;2023-08-21T03:09:09;8.25;;;2.15;;
70312;SDS011;57723;51.698;5.344;2023-08-21T03:11:34;4.60;;;1.50;;
70312;SDS011;57723;51.698;5.344;2023-08-21T03:14:00;5.13;;;2.00;;
70312;SDS011;57723;51.698;5.344;2023-08-21T03:16:25;6.67;;;1.73;;
70312;SDS011;57723;51.698;5.344;2023-08-21T03:19:08;5.93;;;1.60;;
70312;SDS011;57723;51.698;5.344;2023-08-21T03:21:34;5.10;;;1.57;;
70312;SDS011;57723;51.698;5.344;2023-08-21T03:23:59;6.25;;;1.60;;
70312;SDS011;57723;51.698;5.344;2023-08-21T03:26:25;6.00;;;1.70;;
70312;SDS011;57723;51.698;5.344;2023-08-21T03:28:50;4.10;;;1.60;;
70312;SDS011;57723;51.698;5.344;2023-08-21T03:31:15;4.67;;;1.60;;
70312;SDS011;57723;51.698;5.344;2023-08-21T03:33:43;6.20;;;1.80;;
70312;SDS011;57723;51.698;5.344;2023-08-21T03:36:08;6.70;;;1.87;;
70312;SDS011;57723;51.698;5.344;2023-08-21T03:38:34;4.28;;;1.52;;
70312;SDS011;57723;51.698;5.344;2023-08-21T03:41:02;8.82;;;1.90;;
70312;SDS011;57723;51.698;5.344;2023-08-21T03:43:30;5.17;;;1.80;;
70312;SDS011;57723;51.698;5.344;2023-08-21T03:45:55;4.35;;;1.35;;
70312;SDS011;57723;51.698;5.344;2023-08-21T03:48:21;3.43;;;1.50;;
70312;SDS011;57723;51.698;5.344;2023-08-21T03:50:48;5.45;;;1.60;;
70312;SDS011;57723;51.698;5.344;2023-08-21T03:53:17;5.72;;;1.65;;
70312;SDS011;57723;51.698;5.344;2023-08-21T03:55:43;7.30;;;1.53;;
70312;SDS011;57723;51.698;5.344;2023-08-21T03:58:12;4.07;;;1.42;;
70312;SDS011;57723;51.698;5.344;2023-08-21T04:00:38;3.45;;;1.52;;
70312;SDS011;57723;51.698;5.344;2023-08-21T04:03:09;4.45;;;1.50;;
70312;SDS011;57723;51.698;5.344;2023-08-21T04:05:35;4.40;;;1.50;;
70312;SDS011;57723;51.698;5.344;2023-08-21T04:08:00;6.27;;;1.53;;
70312;SDS011;57723;51.698;5.344;2023-08-21T04:10:26;4.97;;;1.40;;
70312;SDS011;57723;51.698;5.344;2023-08-21T04:12:51;6.10;;;1.60;;
70312;SDS011;57723;51.698;5.344;2023-08-21T04:15:16;6.83;;;1.90;;
70312;SDS011;57723;51.698;5.344;2023-08-21T04:17:42;4.90;;;1.40;;
70312;SDS011;57723;51.698;5.344;2023-08-21T04:20:10;4.17;;;1.77;;
70312;SDS011;57723;51.698;5.344;2023-08-21T04:22:38;5.43;;;1.83;;
70312;SDS011;57723;51.698;5.344;2023-08-21T04:25:03;6.50;;;1.80;;
70312;SDS011;57723;51.698;5.344;2023-08-21T04:27:29;10.00;;;2.00;;
70312;SDS011;57723;51.698;5.344;2023-08-21T04:29:56;7.68;;;1.95;;
70312;SDS011;57723;51.698;5.344;2023-08-21T04:32:21;6.13;;;1.50;;
70312;SDS011;57723;51.698;5.344;2023-08-21T04:34:49;5.50;;;1.55;;
70312;SDS011;57723;51.698;5.344;2023-08-21T04:37:18;4.80;;;1.60;;
70312;SDS011;57723;51.698;5.344;2023-08-21T04:39:43;3.03;;;1.63;;
70312;SDS011;57723;51.698;5.344;2023-08-21T04:42:13;4.32;;;1.77;;
70312;SDS011;57723;51.698;5.344;2023-08-21T04:44:45;5.60;;;1.80;;
70312;SDS011;57723;51.698;5.344;2023-08-21T04:47:24;6.30;;;1.77;;
70312;SDS011;57723;51.698;5.344;2023-08-21T04:49:51;8.82;;;1.98;;
70312;SDS011;57723;51.698;5.344;2023-08-21T04:52:20;6.63;;;1.73;;
70312;SDS011;57723;51.698;5.344;2023-08-21T04:54:46;6.50;;;1.70;;
70312;SDS011;57723;51.698;5.344;2023-08-21T04:57:15;7.78;;;2.10;;
70312;SDS011;57723;51.698;5.344;2023-08-21T04:59:40;8.35;;;1.90;;
70312;SDS011;57723;51.698;5.344;2023-08-21T05:02:06;7.50;;;1.83;;
70312;SDS011;57723;51.698;5.344;2023-08-21T05:04:33;5.95;;;1.65;;
70312;SDS011;57723;51.698;5.344;2023-08-21T05:06:59;6.45;;;1.90;;
70312;SDS011;57723;51.698;5.344;2023-08-21T05:09:25;5.85;;;2.05;;
70312;SDS011;57723;51.698;5.344;2023-08-21T05:11:53;7.60;;;2.03;;
70312;SDS011;57723;51.698;5.344;2023-08-21T05:14:18;4.90;;;2.50;;
70312;SDS011;57723;51.698;5.344;2023-08-21T05:16:45;9.82;;;3.38;;
70312;SDS011;57723;51.698;5.344;2023-08-21T05:19:10;4.93;;;3.43;;
70312;SDS011;57723;51.698;5.344;2023-08-21T05:21:35;8.30;;;4.00;;
70312;SDS011;57723;51.698;5.344;2023-08-21T05:24:02;7.40;;;4.22;;
70312;SDS011;57723;51.698;5.344;2023-08-21T05:26:28;7.93;;;4.43;;
70312;SDS011;57723;51.698;5.344;2023-08-21T05:28:54;6.30;;;4.28;;
70312;SDS011;57723;51.698;5.344;2023-08-21T05:31:19;10.35;;;4.43;;
70312;SDS011;57723;51.698;5.344;2023-08-21T05:33:45;9.63;;;4.70;;
70312;SDS011;57723;51.698;5.344;2023-08-21T05:36:14;9.40;;;4.37;;
70312;SDS011;57723;51.698;5.344;2023-08-21T05:38:42;10.48;;;4.72;;
70312;SDS011;57723;51.698;5.344;2023-08-21T05:41:11;9.02;;;4.30;;
70312;SDS011;57723;51.698;5.344;2023-08-21T05:43:39;7.50;;;5.18;;
70312;SDS011;57723;51.698;5.344;2023-08-21T05:46:07;8.53;;;4.77;;
70312;SDS011;57723;51.698;5.344;2023-08-21T05:48:33;9.10;;;3.85;;
70312;SDS011;57723;51.698;5.344;2023-08-21T05:51:01;7.82;;;4.40;;
70312;SDS011;57723;51.698;5.344;2023-08-21T05:53:26;4.82;;;4.28;;
70312;SDS011;57723;51.698;5.344;2023-08-21T05:55:52;7.63;;;4.23;;
70312;SDS011;57723;51.698;5.344;2023-08-21T05:58:20;8.20;;;4.67;;
70312;SDS011;57723;51.698;5.344;2023-08-21T06:00:48;20.17;;;7.57;;
70312;SDS011;57723;51.698;5.344;2023-08-21T06:03:17;29.88;;;8.45;;
70312;SDS011;57723;51.698;5.344;2023-08-21T06:05:45;21.83;;;6.63;;
70312;SDS011;57723;51.698;5.344;2023-08-21T06:08:16;14.43;;;5.80;;
70312;SDS011;57723;51.698;5.344;2023-08-21T06:10:44;12.75;;;5.57;;
70312;SDS011;57723;51.698;5.344;2023-08-21T06:13:09;15.30;;;5.70;;
70312;SDS011;57723;51.698;5.344;2023-08-21T06:15:34;12.70;;;5.77;;
70312;SDS011;57723;51.698;5.344;2023-08-21T06:18:00;15.52;;;5.50;;
70312;SDS011;57723;51.698;5.344;2023-08-21T06:20:26;12.68;;;5.45;;
70312;SDS011;57723;51.698;5.344;2023-08-21T06:22:52;10.90;;;5.60;;
70312;SDS011;57723;51.698;5.344;2023-08-21T06:25:17;11.23;;;4.63;;
70312;SDS011;57723;51.698;5.344;2023-08-21T06:27:44;9.23;;;5.15;;
70312;SDS011;57723;51.698;5.344;2023-08-21T06:30:09;9.17;;;4.50;;
70312;SDS011;57723;51.698;5.344;2023-08-21T06:32:38;10.05;;;4.50;;
70312;SDS011;57723;51.698;5.344;2023-08-21T06:35:08;9.00;;;4.45;;
70312;SDS011;57723;51.698;5.344;2023-08-21T06:37:35;9.00;;;4.27;;
70312;SDS011;57723;51.698;5.344;2023-08-21T06:40:01;8.15;;;4.25;;
70312;SDS011;57723;51.698;5.344;2023-08-21T06:42:29;7.38;;;4.95;;
70312;SDS011;57723;51.698;5.344;2023-08-21T06:45:04;8.88;;;4.18;;
70312;SDS011;57723;51.698;5.344;2023-08-21T06:47:30;11.20;;;3.92;;
70312;SDS011;57723;51.698;5.344;2023-08-21T06:49:57;7.10;;;4.03;;
70312;SDS011;57723;51.698;5.344;2023-08-21T06:52:26;7.75;;;3.97;;
70312;SDS011;57723;51.698;5.344;2023-08-21T06:54:52;7.45;;;4.30;;
70312;SDS011;57723;51.698;5.344;2023-08-21T06:57:17;6.63;;;4.23;;
70312;SDS011;57723;51.698;5.344;2023-08-21T06:59:48;7.82;;;4.28;;
70312;SDS011;57723;51.698;5.344;2023-08-21T07:02:15;9.00;;;3.93;;
70312;SDS011;57723;51.698;5.344;2023-08-21T07:04:41;6.32;;;3.90;;
70312;SDS011;57723;51.698;5.344;2023-08-21T07:07:07;11.90;;;4.35;;
70312;SDS011;57723;51.698;5.344;2023-08-21T07:09:32;7.00;;;4.37;;
70312;SDS011;57723;51.698;5.344;2023-08-21T07:12:03;8.50;;;3.90;;
70312;SDS011;57723;51.698;5.344;2023-08-21T07:14:33;7.25;;;4.40;;
70312;SDS011;57723;51.698;5.344;2023-08-21T07:16:58;8.20;;;4.38;;
70312;SDS011;57723;51.698;5.344;2023-08-21T07:19:24;6.83;;;3.67;;
70312;SDS011;57723;51.698;5.344;2023-08-21T07:21:49;12.67;;;4.27;;
70312;SDS011;57723;51.698;5.344;2023-08-21T07:24:14;8.43;;;4.00;;
70312;SDS011;57723;51.698;5.344;2023-08-21T07:26:40;6.37;;;4.23;;
70312;SDS011;57723;51.698;5.344;2023-08-21T07:29:09;7.43;;;4.00;;
70312;SDS011;57723;51.698;5.344;2023-08-21T07:31:34;6.87;;;3.93;;
70312;SDS011;57723;51.698;5.344;2023-08-21T07:34:00;5.43;;;3.40;;
70312;SDS011;57723;51.698;5.344;2023-08-21T07:36:25;8.50;;;4.10;;
70312;SDS011;57723;51.698;5.344;2023-08-21T07:38:51;6.47;;;4.03;;
70312;SDS011;57723;51.698;5.344;2023-08-21T07:41:17;8.82;;;3.80;;
70312;SDS011;57723;51.698;5.344;2023-08-21T07:43:44;8.55;;;4.20;;
70312;SDS011;57723;51.698;5.344;2023-08-21T07:46:11;4.57;;;4.03;;
70312;SDS011;57723;51.698;5.344;2023-08-21T07:48:40;6.90;;;4.20;;
70312;SDS011;57723;51.698;5.344;2023-08-21T07:51:06;10.23;;;4.20;;
70312;SDS011;57723;51.698;5.344;2023-08-21T07:53:32;7.80;;;3.73;;
70312;SDS011;57723;51.698;5.344;2023-08-21T07:56:00;7.32;;;4.13;;
70312;SDS011;57723;51.698;5.344;2023-08-21T07:58:26;7.82;;;4.15;;
70312;SDS011;57723;51.698;5.344;2023-08-21T08:00:52;6.53;;;3.90;;
70312;SDS011;57723;51.698;5.344;2023-08-21T08:03:20;6.97;;;4.07;;
70312;SDS011;57723;51.698;5.344;2023-08-21T08:05:45;9.00;;;4.50;;
70312;SDS011;57723;51.698;5.344;2023-08-21T08:08:11;6.38;;;4.28;;
70312;SDS011;57723;51.698;5.344;2023-08-21T08:10:37;7.83;;;4.30;;
70312;SDS011;57723;51.698;5.344;2023-08-21T08:13:03;6.28;;;3.67;;
70312;SDS011;57723;51.698;5.344;2023-08-21T08:15:28;11.40;;;4.67;;
70312;SDS011;57723;51.698;5.344;2023-08-21T08:17:54;8.07;;;3.77;;
70312;SDS011;57723;51.698;5.344;2023-08-21T08:20:20;5.70;;;4.10;;
70312;SDS011;57723;51.698;5.344;2023-08-21T08:22:45;6.22;;;4.25;;
70312;SDS011;57723;51.698;5.344;2023-08-21T08:25:15;10.13;;;4.10;;
70312;SDS011;57723;51.698;5.344;2023-08-21T08:27:40;7.05;;;3.97;;
70312;SDS011;57723;51.698;5.344;2023-08-21T08:30:07;8.15;;;4.10;;
70312;SDS011;57723;51.698;5.344;2023-08-21T08:32:35;9.45;;;4.05;;
70312;SDS011;57723;51.698;5.344;2023-08-21T08:35:04;7.63;;;3.87;;
70312;SDS011;57723;51.698;5.344;2023-08-21T08:37:30;5.87;;;4.13;;
70312;SDS011;57723;51.698;5.344;2023-08-21T08:39:59;4.78;;;3.50;;
70312;SDS011;57723;51.698;5.344;2023-08-21T08:42:28;5.50;;;3.88;;
70312;SDS011;57723;51.698;5.344;2023-08-21T08:44:54;8.53;;;3.70;;
70312;SDS011;57723;51.698;5.344;2023-08-21T08:47:19;8.07;;;3.70;;
70312;SDS011;57723;51.698;5.344;2023-08-21T08:49:46;6.97;;;4.17;;
70312;SDS011;57723;51.698;5.344;2023-08-21T08:52:16;6.75;;;3.85;;
70312;SDS011;57723;51.698;5.344;2023-08-21T08:54:43;10.60;;;4.40;;
70312;SDS011;57723;51.698;5.344;2023-08-21T08:57:12;4.27;;;3.63;;
70312;SDS011;57723;51.698;5.344;2023-08-21T08:59:38;6.95;;;3.75;;
70312;SDS011;57723;51.698;5.344;2023-08-21T09:02:04;4.97;;;4.10;;
70312;SDS011;57723;51.698;5.344;2023-08-21T09:04:30;7.65;;;4.30;;
70312;SDS011;57723;51.698;5.344;2023-08-21T09:07:12;7.68;;;4.07;;
70312;SDS011;57723;51.698;5.344;2023-08-21T09:09:38;7.05;;;4.20;;
70312;SDS011;57723;51.698;5.344;2023-08-21T09:12:09;7.05;;;4.10;;
70312;SDS011;57723;51.698;5.344;2023-08-21T09:14:43;7.40;;;4.30;;
70312;SDS011;57723;51.698;5.344;2023-08-21T09:17:09;7.07;;;3.72;;
70312;SDS011;57723;51.698;5.344;2023-08-21T09:19:34;8.10;;;4.00;;
70312;SDS011;57723;51.698;5.344;2023-08-21T09:22:08;6.45;;;3.42;;
70312;SDS011;57723;51.698;5.344;2023-08-21T09:24:35;4.93;;;3.58;;
70312;SDS011;57723;51.698;5.344;2023-08-21T09:27:01;6.78;;;3.60;;
70312;SDS011;57723;51.698;5.344;2023-08-21T09:29:26;7.30;;;3.90;;
70312;SDS011;57723;51.698;5.344;2023-08-21T09:31:55;7.45;;;4.03;;
70312;SDS011;57723;51.698;5.344;2023-08-21T09:34:21;7.27;;;3.60;;
70312;SDS011;57723;51.698;5.344;2023-08-21T09:36:57;6.72;;;3.92;;
70312;SDS011;57723;51.698;5.344;2023-08-21T09:39:28;5.70;;;3.55;;
70312;SDS011;57723;51.698;5.344;2023-08-21T09:41:57;8.20;;;3.95;;
70312;SDS011;57723;51.698;5.344;2023-08-21T09:44:23;4.73;;;3.70;;
70312;SDS011;57723;51.698;5.344;2023-08-21T09:46:49;4.10;;;3.70;;
70312;SDS011;57723;51.698;5.344;2023-08-21T09:49:15;7.17;;;3.67;;
70312;SDS011;57723;51.698;5.344;2023-08-21T09:51:44;7.53;;;3.55;;
70312;SDS011;57723;51.698;5.344;2023-08-21T09:54:10;6.43;;;3.70;;
70312;SDS011;57723;51.698;5.344;2023-08-21T09:56:38;7.38;;;3.47;;
70312;SDS011;57723;51.698;5.344;2023-08-21T09:59:04;6.72;;;3.80;;
70312;SDS011;57723;51.698;5.344;2023-08-21T10:01:30;5.20;;;3.60;;
70312;SDS011;57723;51.698;5.344;2023-08-21T10:03:57;5.15;;;3.92;;
70312;SDS011;57723;51.698;5.344;2023-08-21T10:06:24;5.43;;;3.70;;
70312;SDS011;57723;51.698;5.344;2023-08-21T10:08:53;6.00;;;3.67;;
70312;SDS011;57723;51.698;5.344;2023-08-21T10:11:19;4.87;;;3.70;;
70312;SDS011;57723;51.698;5.344;2023-08-21T10:13:45;6.68;;;3.83;;
70312;SDS011;57723;51.698;5.344;2023-08-21T10:16:10;4.60;;;3.63;;
70312;SDS011;57723;51.698;5.344;2023-08-21T10:18:36;4.47;;;3.22;;
70312;SDS011;57723;51.698;5.344;2023-08-21T10:23:37;9.07;;;4.47;;
70312;SDS011;57723;51.698;5.344;2023-08-21T10:26:05;16.07;;;4.20;;
70312;SDS011;57723;51.698;5.344;2023-08-21T10:33:54;8.60;;;4.20;;
70312;SDS011;57723;51.698;5.344;2023-08-21T10:36:36;8.77;;;4.13;;
70312;SDS011;57723;51.698;5.344;2023-08-21T10:39:02;6.20;;;3.97;;
70312;SDS011;57723;51.698;5.344;2023-08-21T10:41:30;10.55;;;4.28;;
70312;SDS011;57723;51.698;5.344;2023-08-21T10:43:55;6.87;;;3.97;;
70312;SDS011;57723;51.698;5.344;2023-08-21T10:46:21;5.93;;;4.07;;
70312;SDS011;57723;51.698;5.344;2023-08-21T10:48:48;5.50;;;3.47;;
70312;SDS011;57723;51.698;5.344;2023-08-21T10:51:13;5.68;;;3.72;;
70312;SDS011;57723;51.698;5.344;2023-08-21T10:53:40;6.75;;;3.92;;
70312;SDS011;57723;51.698;5.344;2023-08-21T10:56:07;6.70;;;3.87;;
70312;SDS011;57723;51.698;5.344;2023-08-21T10:58:41;5.20;;;3.72;;
70312;SDS011;57723;51.698;5.344;2023-08-21T11:01:12;5.93;;;3.60;;
70312;SDS011;57723;51.698;5.344;2023-08-21T11:03:44;10.93;;;4.10;;
70312;SDS011;57723;51.698;5.344;2023-08-21T11:06:10;7.72;;;4.18;;
70312;SDS011;57723;51.698;5.344;2023-08-21T11:08:36;7.17;;;3.90;;
70312;SDS011;57723;51.698;5.344;2023-08-21T11:11:02;6.60;;;3.75;;
70312;SDS011;57723;51.698;5.344;2023-08-21T11:13:27;7.13;;;4.50;;
70312;SDS011;57723;51.698;5.344;2023-08-21T11:16:03;9.93;;;4.18;;
70312;SDS011;57723;51.698;5.344;2023-08-21T11:18:30;6.03;;;3.75;;
70312;SDS011;57723;51.698;5.344;2023-08-21T11:21:02;6.20;;;4.27;;
70312;SDS011;57723;51.698;5.344;2023-08-21T11:23:31;9.00;;;4.47;;
70312;SDS011;57723;51.698;5.344;2023-08-21T11:25:57;5.22;;;4.03;;
70312;SDS011;57723;51.698;5.344;2023-08-21T11:28:22;5.83;;;3.63;;
70312;SDS011;57723;51.698;5.344;2023-08-21T11:30:50;5.50;;;3.67;;
70312;SDS011;57723;51.698;5.344;2023-08-21T11:33:16;6.30;;;3.83;;
70312;SDS011;57723;51.698;5.344;2023-08-21T11:35:41;8.73;;;4.13;;
70312;SDS011;57723;51.698;5.344;2023-08-21T11:38:14;4.20;;;3.47;;
70312;SDS011;57723;51.698;5.344;2023-08-21T11:40:40;4.30;;;3.55;;
70312;SDS011;57723;51.698;5.344;2023-08-21T11:43:05;5.53;;;3.70;;
70312;SDS011;57723;51.698;5.344;2023-08-21T11:45:31;8.05;;;3.70;;
70312;SDS011;57723;51.698;5.344;2023-08-21T11:48:01;5.10;;;3.55;;
70312;SDS011;57723;51.698;5.344;2023-08-21T11:50:26;5.43;;;3.77;;
70312;SDS011;57723;51.698;5.344;2023-08-21T11:52:52;9.13;;;3.47;;
70312;SDS011;57723;51.698;5.344;2023-08-21T11:55:18;6.72;;;4.05;;
70312;SDS011;57723;51.698;5.344;2023-08-21T11:57:47;4.30;;;3.80;;
70312;SDS011;57723;51.698;5.344;2023-08-21T12:00:12;4.50;;;2.95;;
70312;SDS011;57723;51.698;5.344;2023-08-21T12:02:38;5.77;;;3.70;;
70312;SDS011;57723;51.698;5.344;2023-08-21T12:05:04;5.17;;;3.70;;
70312;SDS011;57723;51.698;5.344;2023-08-21T12:07:30;6.20;;;3.90;;
70312;SDS011;57723;51.698;5.344;2023-08-21T12:09:58;6.30;;;4.00;;
70312;SDS011;57723;51.698;5.344;2023-08-21T12:12:23;4.93;;;3.77;;
70312;SDS011;57723;51.698;5.344;2023-08-21T12:14:49;7.80;;;4.18;;
70312;SDS011;57723;51.698;5.344;2023-08-21T12:17:14;4.80;;;3.93;;
70312;SDS011;57723;51.698;5.344;2023-08-21T12:19:40;5.20;;;3.70;;
70312;SDS011;57723;51.698;5.344;2023-08-21T12:22:06;9.02;;;3.63;;
70312;SDS011;57723;51.698;5.344;2023-08-21T12:24:31;8.47;;;3.70;;
70312;SDS011;57723;51.698;5.344;2023-08-21T12:26:57;5.03;;;3.77;;
70312;SDS011;57723;51.698;5.344;2023-08-21T12:29:24;4.63;;;3.60;;
70312;SDS011;57723;51.698;5.344;2023-08-21T12:31:50;5.23;;;3.80;;
70312;SDS011;57723;51.698;5.344;2023-08-21T12:34:15;4.07;;;3.30;;
70312;SDS011;57723;51.698;5.344;2023-08-21T12:36:40;5.27;;;3.53;;
70312;SDS011;57723;51.698;5.344;2023-08-21T12:39:06;4.25;;;3.80;;
70312;SDS011;57723;51.698;5.344;2023-08-21T12:41:31;4.60;;;3.80;;
70312;SDS011;57723;51.698;5.344;2023-08-21T12:44:01;6.93;;;3.90;;
70312;SDS011;57723;51.698;5.344;2023-08-21T12:46:28;4.13;;;3.40;;
70312;SDS011;57723;51.698;5.344;2023-08-21T12:48:54;7.47;;;3.75;;
70312;SDS011;57723;51.698;5.344;2023-08-21T12:51:19;4.63;;;4.13;;
70312;SDS011;57723;51.698;5.344;2023-08-21T12:53:45;4.93;;;3.83;;
70312;SDS011;57723;51.698;5.344;2023-08-21T12:56:14;4.00;;;3.58;;
70312;SDS011;57723;51.698;5.344;2023-08-21T12:58:42;4.23;;;3.63;;
70312;SDS011;57723;51.698;5.344;2023-08-21T13:01:07;4.70;;;3.53;;
70312;SDS011;57723;51.698;5.344;2023-08-21T13:03:33;5.30;;;3.80;;
70312;SDS011;57723;51.698;5.344;2023-08-21T13:06:04;4.17;;;3.77;;
70312;SDS011;57723;51.698;5.344;2023-08-21T13:08:30;7.88;;;3.90;;
70312;SDS011;57723;51.698;5.344;2023-08-21T13:10:55;7.23;;;3.60;;
70312;SDS011;57723;51.698;5.344;2023-08-21T13:13:20;4.20;;;3.80;;
70312;SDS011;57723;51.698;5.344;2023-08-21T13:15:46;4.43;;;3.70;;
70312;SDS011;57723;51.698;5.344;2023-08-21T13:18:12;4.97;;;3.90;;
70312;SDS011;57723;51.698;5.344;2023-08-21T13:20:40;4.40;;;3.50;;
70312;SDS011;57723;51.698;5.344;2023-08-21T13:23:08;4.15;;;3.67;;
70312;SDS011;57723;51.698;5.344;2023-08-21T13:25:33;5.68;;;3.60;;
70312;SDS011;57723;51.698;5.344;2023-08-21T13:28:00;4.93;;;4.00;;
70312;SDS011;57723;51.698;5.344;2023-08-21T13:30:25;4.90;;;3.20;;
70312;SDS011;57723;51.698;5.344;2023-08-21T13:32:51;4.40;;;3.28;;
70312;SDS011;57723;51.698;5.344;2023-08-21T13:35:16;6.13;;;3.50;;
70312;SDS011;57723;51.698;5.344;2023-08-21T13:37:42;5.38;;;3.60;;
70312;SDS011;57723;51.698;5.344;2023-08-21T13:40:08;5.73;;;3.80;;
70312;SDS011;57723;51.698;5.344;2023-08-21T13:42:40;6.13;;;4.07;;
70312;SDS011;57723;51.698;5.344;2023-08-21T13:45:09;6.57;;;3.80;;
70312;SDS011;57723;51.698;5.344;2023-08-21T13:47:36;4.85;;;3.60;;
70312;SDS011;57723;51.698;5.344;2023-08-21T13:50:01;4.40;;;3.37;;
70312;SDS011;57723;51.698;5.344;2023-08-21T13:52:27;5.27;;;3.93;;
70312;SDS011;57723;51.698;5.344;2023-08-21T13:54:52;5.57;;;3.67;;
70312;SDS011;57723;51.698;5.344;2023-08-21T13:57:18;5.17;;;3.80;;
70312;SDS011;57723;51.698;5.344;2023-08-21T13:59:43;5.57;;;3.73;;
70312;SDS011;57723;51.698;5.344;2023-08-21T14:02:09;5.47;;;3.27;;
70312;SDS011;57723;51.698;5.344;2023-08-21T14:04:37;4.20;;;3.80;;
70312;SDS011;57723;51.698;5.344;2023-08-21T14:07:03;4.68;;;3.70;;
70312;SDS011;57723;51.698;5.344;2023-08-21T14:09:31;5.67;;;3.50;;
70312;SDS011;57723;51.698;5.344;2023-08-21T14:11:57;7.20;;;4.20;;
70312;SDS011;57723;51.698;5.344;2023-08-21T14:14:24;6.43;;;3.40;;
70312;SDS011;57723;51.698;5.344;2023-08-21T14:16:50;6.72;;;3.50;;
70312;SDS011;57723;51.698;5.344;2023-08-21T14:19:16;4.13;;;3.53;;
70312;SDS011;57723;51.698;5.344;2023-08-21T14:21:41;5.27;;;3.27;;
70312;SDS011;57723;51.698;5.344;2023-08-21T14:24:07;4.53;;;3.40;;
70312;SDS011;57723;51.698;5.344;2023-08-21T14:26:32;5.28;;;3.65;;
70312;SDS011;57723;51.698;5.344;2023-08-21T14:28:58;5.10;;;3.20;;
70312;SDS011;57723;51.698;5.344;2023-08-21T14:31:23;8.03;;;3.70;;
70312;SDS011;57723;51.698;5.344;2023-08-21T14:33:49;5.85;;;3.45;;
70312;SDS011;57723;51.698;5.344;2023-08-21T14:36:15;5.33;;;3.50;;
70312;SDS011;57723;51.698;5.344;2023-08-21T14:38:41;3.78;;;3.17;;
70312;SDS011;57723;51.698;5.344;2023-08-21T14:41:06;3.93;;;3.53;;
70312;SDS011;57723;51.698;5.344;2023-08-21T14:43:31;4.57;;;3.47;;
70312;SDS011;57723;51.698;5.344;2023-08-21T14:45:57;5.07;;;3.53;;
70312;SDS011;57723;51.698;5.344;2023-08-21T14:48:22;5.32;;;3.40;;
70312;SDS011;57723;51.698;5.344;2023-08-21T14:50:48;4.30;;;2.80;;
70312;SDS011;57723;51.698;5.344;2023-08-21T14:53:19;6.05;;;3.67;;
70312;SDS011;57723;51.698;5.344;2023-08-21T14:55:45;6.28;;;3.45;;
70312;SDS011;57723;51.698;5.344;2023-08-21T14:58:10;8.63;;;3.73;;